Time;durP1;ratioP1;P1;durP2;ratioP2;P2;SDS_P1;SDS_P2;PMS_P1;PMS_P2;Temp;Humidity;BMP_temperature;BMP_pressure;BME280_temperature;BME280_humidity;BME280_pressure;Samples;Min_cycle;Max_cycle;Signal;HPM_P1;HPM_P2
2022/07/25 00:01:20;;;;;;;6.78;5.90;;;;;;;;;;1666558;86;21060;-67
2022/07/25 00:03:48;;;;;;;7.08;5.58;;;;;;;;;;1664426;86;21534;-66
2022/07/25 00:06:14;;;;;;;9.63;6.37;;;;;;;;;;1664290;86;21138;-66
2022/07/25 00:08:40;;;;;;;8.93;5.83;;;;;;;;;;1664120;86;21139;-66
2022/07/25 00:11:08;;;;;;;8.00;6.50;;;;;;;;;;1664038;86;21668;-66
2022/07/25 00:13:36;;;;;;;6.92;5.40;;;;;;;;;;1669175;85;21116;-66
2022/07/25 00:16:04;;;;;;;8.53;5.85;;;;;;;;;;1668603;86;21076;-66
2022/07/25 00:18:30;;;;;;;7.97;5.95;;;;;;;;;;1668776;86;21040;-66
2022/07/25 00:20:58;;;;;;;8.43;6.60;;;;;;;;;;1667584;86;21070;-65
2022/07/25 00:23:25;;;;;;;6.75;5.15;;;;;;;;;;1664453;86;21078;-66
2022/07/25 00:25:51;;;;;;;9.25;5.72;;;;;;;;;;1665169;86;21056;-66
2022/07/25 00:28:18;;;;;;;9.18;5.85;;;;;;;;;;1666192;85;21564;-66
2022/07/25 00:30:46;;;;;;;6.55;5.47;;;;;;;;;;1672629;85;21092;-66
2022/07/25 00:33:14;;;;;;;7.10;6.25;;;;;;;;;;1677750;84;21103;-65
2022/07/25 00:37:58;;;;;;;8.63;5.33;;;;;;;;;;1801774;79;22891;-66
2022/07/25 00:40:25;;;;;;;6.97;5.62;;;;;;;;;;1760944;81;21032;-66
2022/07/25 00:42:51;;;;;;;7.72;6.87;;;;;;;;;;1756728;80;21032;-66
2022/07/25 00:45:17;;;;;;;8.58;6.20;;;;;;;;;;1761346;80;21052;-66
2022/07/25 00:47:44;;;;;;;8.05;5.50;;;;;;;;;;1755532;81;21032;-67
2022/07/25 00:50:11;;;;;;;6.87;5.28;;;;;;;;;;1757311;81;21048;-66
2022/07/25 00:52:37;;;;;;;9.58;6.33;;;;;;;;;;1760299;80;21064;-67
2022/07/25 00:55:04;;;;;;;8.50;5.12;;;;;;;;;;1761151;80;21021;-66
2022/07/25 00:57:31;;;;;;;8.85;5.20;;;;;;;;;;1755525;80;21543;-66
2022/07/25 00:59:57;;;;;;;9.68;6.05;;;;;;;;;;1761097;80;21060;-65
2022/07/25 01:08:13;;;;;;;6.95;5.42;;;;;;;;;;1759133;81;21027;-66
2022/07/25 01:10:40;;;;;;;7.62;6.10;;;;;;;;;;1759232;81;21015;-66
2022/07/25 01:13:06;;;;;;;6.25;5.65;;;;;;;;;;1759521;81;21019;-66
2022/07/25 01:15:32;;;;;;;8.48;5.22;;;;;;;;;;1759418;81;20952;-66
2022/07/25 01:17:59;;;;;;;7.25;5.05;;;;;;;;;;1759379;81;21047;-66
2022/07/25 01:20:26;;;;;;;6.53;5.12;;;;;;;;;;1759337;81;21004;-66
2022/07/25 01:22:53;;;;;;;7.95;6.05;;;;;;;;;;1759427;81;21058;-66
2022/07/25 01:25:19;;;;;;;8.00;6.05;;;;;;;;;;1759390;81;21493;-65
2022/07/25 01:27:45;;;;;;;6.72;5.35;;;;;;;;;;1759095;81;21027;-66
2022/07/25 01:30:13;;;;;;;6.42;4.87;;;;;;;;;;1759328;81;21036;-66
2022/07/25 01:32:39;;;;;;;9.68;5.42;;;;;;;;;;1759574;81;21136;-67
2022/07/25 01:35:06;;;;;;;6.83;5.90;;;;;;;;;;1759470;81;20975;-66
2022/07/25 01:37:32;;;;;;;7.10;5.22;;;;;;;;;;1759277;81;21506;-67
2022/07/25 01:39:58;;;;;;;7.15;5.12;;;;;;;;;;1759381;81;21798;-66
2022/07/25 01:42:24;;;;;;;7.70;5.20;;;;;;;;;;1759263;81;21003;-66
2022/07/25 01:44:50;;;;;;;6.70;5.37;;;;;;;;;;1759395;81;21016;-65
2022/07/25 01:47:16;;;;;;;7.03;5.10;;;;;;;;;;1759203;81;20981;-65
2022/07/25 01:49:43;;;;;;;8.98;5.33;;;;;;;;;;1758655;81;20996;-65
2022/07/25 01:52:09;;;;;;;6.78;5.12;;;;;;;;;;1758667;81;21055;-65
2022/07/25 01:54:35;;;;;;;6.65;5.70;;;;;;;;;;1758775;81;20971;-65
2022/07/25 01:57:02;;;;;;;6.90;4.33;;;;;;;;;;1758821;81;21003;-66
2022/07/25 01:59:28;;;;;;;8.68;4.97;;;;;;;;;;1758844;81;21107;-66
2022/07/25 02:01:54;;;;;;;6.60;4.95;;;;;;;;;;1758747;81;21006;-67
2022/07/25 02:04:20;;;;;;;6.10;5.05;;;;;;;;;;1768102;80;22309;-66
2022/07/25 02:06:46;;;;;;;7.17;5.50;;;;;;;;;;1766872;81;21046;-66
2022/07/25 02:09:14;;;;;;;6.22;4.80;;;;;;;;;;1767994;81;21118;-66
2022/07/25 02:11:41;;;;;;;5.97;4.22;;;;;;;;;;1767664;81;21038;-66
2022/07/25 02:14:07;;;;;;;5.80;4.37;;;;;;;;;;1768281;81;21534;-66
2022/07/25 02:16:33;;;;;;;5.92;4.90;;;;;;;;;;1766887;81;21015;-66
2022/07/25 02:19:02;;;;;;;7.12;5.05;;;;;;;;;;1767511;81;21145;-66
2022/07/25 02:21:29;;;;;;;9.13;4.62;;;;;;;;;;1766302;81;21105;-66
2022/07/25 02:23:55;;;;;;;7.08;4.62;;;;;;;;;;1766818;81;21653;-66
2022/07/25 02:26:21;;;;;;;5.95;4.80;;;;;;;;;;1765924;81;21023;-66
2022/07/25 02:28:48;;;;;;;6.55;5.22;;;;;;;;;;1766099;81;21059;-66
2022/07/25 02:31:14;;;;;;;5.40;4.28;;;;;;;;;;1766841;81;21616;-66
2022/07/25 02:33:41;;;;;;;6.20;4.67;;;;;;;;;;1767172;81;21078;-66
2022/07/25 02:36:07;;;;;;;6.55;4.67;;;;;;;;;;1767072;81;21086;-66
2022/07/25 02:38:34;;;;;;;8.25;5.05;;;;;;;;;;1767190;81;21047;-66
2022/07/25 02:41:00;;;;;;;6.30;4.35;;;;;;;;;;1766898;81;21023;-66
2022/07/25 02:43:26;;;;;;;7.53;5.17;;;;;;;;;;1766987;81;21018;-66
2022/07/25 02:45:52;;;;;;;8.15;5.42;;;;;;;;;;1766441;81;21168;-66
2022/07/25 02:48:18;;;;;;;5.47;4.30;;;;;;;;;;1766105;81;20964;-66
2022/07/25 02:50:44;;;;;;;7.53;4.85;;;;;;;;;;1766626;81;21094;-66
2022/07/25 02:53:10;;;;;;;7.47;4.80;;;;;;;;;;1766824;81;21023;-66
2022/07/25 02:55:36;;;;;;;8.80;5.15;;;;;;;;;;1767131;81;21101;-66
2022/07/25 02:58:03;;;;;;;6.70;4.90;;;;;;;;;;1765775;81;21536;-66
2022/07/25 03:00:29;;;;;;;7.60;4.10;;;;;;;;;;1766092;81;21125;-65
2022/07/25 03:02:55;;;;;;;7.72;5.10;;;;;;;;;;1766803;80;21040;-66
2022/07/25 03:05:22;;;;;;;8.85;4.95;;;;;;;;;;1746251;80;21095;-66
2022/07/25 03:07:47;;;;;;;11.05;4.65;;;;;;;;;;1748697;81;21522;-66
2022/07/25 03:10:14;;;;;;;5.78;4.15;;;;;;;;;;1749297;82;21565;-66
2022/07/25 03:12:40;;;;;;;6.95;4.78;;;;;;;;;;1750209;82;20976;-66
2022/07/25 03:15:06;;;;;;;6.80;4.45;;;;;;;;;;1749683;81;21522;-66
2022/07/25 03:17:33;;;;;;;6.35;5.10;;;;;;;;;;1725416;80;21107;-67
2022/07/25 03:19:59;;;;;;;7.85;5.50;;;;;;;;;;1683844;85;21058;-66
2022/07/25 03:22:25;;;;;;;8.50;6.22;;;;;;;;;;1681680;85;21035;-66
2022/07/25 03:24:52;;;;;;;5.47;4.12;;;;;;;;;;1711687;84;21000;-66
2022/07/25 03:27:19;;;;;;;5.55;4.50;;;;;;;;;;1710381;82;21035;-66
2022/07/25 03:29:45;;;;;;;6.12;4.33;;;;;;;;;;1711585;84;21004;-67
2022/07/25 03:32:12;;;;;;;7.33;4.80;;;;;;;;;;1711625;84;21039;-66
2022/07/25 03:34:39;;;;;;;5.47;4.25;;;;;;;;;;1678556;84;21155;-66
2022/07/25 03:37:05;;;;;;;8.83;4.65;;;;;;;;;;1700231;84;21007;-66
2022/07/25 03:39:31;;;;;;;6.78;4.30;;;;;;;;;;1708340;84;21058;-66
2022/07/25 03:41:58;;;;;;;6.58;4.47;;;;;;;;;;1683050;85;21027;-66
2022/07/25 03:44:24;;;;;;;5.95;4.90;;;;;;;;;;1683105;85;21037;-67
2022/07/25 03:46:50;;;;;;;6.22;4.53;;;;;;;;;;1684231;84;21141;-66
2022/07/25 03:49:16;;;;;;;6.70;4.72;;;;;;;;;;1679110;85;21614;-66
2022/07/25 03:51:42;;;;;;;5.40;4.35;;;;;;;;;;1684613;84;21014;-66
2022/07/25 03:54:12;;;;;;;6.42;4.50;;;;;;;;;;1684637;85;21062;-65
2022/07/25 03:56:43;;;;;;;10.95;4.47;;;;;;;;;;1684277;83;21509;-66
2022/07/25 03:59:10;;;;;;;6.70;4.17;;;;;;;;;;1683306;85;21058;-65
2022/07/25 04:01:37;;;;;;;7.03;4.45;;;;;;;;;;1683222;85;21051;-66
2022/07/25 04:04:04;;;;;;;6.62;4.12;;;;;;;;;;1694727;81;21053;-66
2022/07/25 04:06:30;;;;;;;8.65;4.75;;;;;;;;;;1756260;81;21004;-66
2022/07/25 04:08:57;;;;;;;5.60;4.53;;;;;;;;;;1720115;83;21072;-66
2022/07/25 04:11:23;;;;;;;9.75;4.50;;;;;;;;;;1751168;82;21099;-68
2022/07/25 04:13:50;;;;;;;7.65;5.28;;;;;;;;;;1751314;82;21566;-65
2022/07/25 04:16:16;;;;;;;7.62;4.30;;;;;;;;;;1750557;82;21063;-66
2022/07/25 04:18:43;;;;;;;7.95;4.83;;;;;;;;;;1752233;82;21058;-67
2022/07/25 04:21:09;;;;;;;6.30;4.40;;;;;;;;;;1752065;82;21047;-66
2022/07/25 04:23:36;;;;;;;6.55;4.53;;;;;;;;;;1755846;82;21016;-66
2022/07/25 04:26:02;;;;;;;6.90;4.85;;;;;;;;;;1765305;80;21106;-66
2022/07/25 04:28:31;;;;;;;7.60;4.90;;;;;;;;;;1755613;81;21577;-66
2022/07/25 04:30:58;;;;;;;7.25;4.62;;;;;;;;;;1750775;82;21104;-66
2022/07/25 04:33:24;;;;;;;7.33;5.05;;;;;;;;;;1751597;82;21503;-66
2022/07/25 04:35:50;;;;;;;8.55;4.58;;;;;;;;;;1755881;81;21083;-66
2022/07/25 04:38:16;;;;;;;8.28;5.12;;;;;;;;;;1755856;82;21290;-66
2022/07/25 04:40:42;;;;;;;7.47;5.28;;;;;;;;;;1755530;82;21065;-65
2022/07/25 04:43:09;;;;;;;7.72;4.92;;;;;;;;;;1755780;82;21104;-65
2022/07/25 04:45:35;;;;;;;8.15;4.85;;;;;;;;;;1759071;80;21011;-65
2022/07/25 04:48:01;;;;;;;8.05;4.80;;;;;;;;;;1783841;80;21622;-65
2022/07/25 04:50:27;;;;;;;7.83;4.92;;;;;;;;;;1783742;80;20985;-66
2022/07/25 04:52:53;;;;;;;7.47;5.62;;;;;;;;;;1783678;80;21515;-66
2022/07/25 04:55:19;;;;;;;7.58;4.78;;;;;;;;;;1761589;80;21076;-66
2022/07/25 04:57:46;;;;;;;7.10;4.35;;;;;;;;;;1727502;83;21062;-66
2022/07/25 05:00:13;;;;;;;7.60;5.42;;;;;;;;;;1712076;83;21078;-66
2022/07/25 05:02:38;;;;;;;7.20;4.75;;;;;;;;;;1755824;82;21010;-66
2022/07/25 05:05:07;;;;;;;5.67;4.45;;;;;;;;;;1747052;82;21116;-66
2022/07/25 05:07:33;;;;;;;8.23;4.95;;;;;;;;;;1710897;82;21084;-66
2022/07/25 05:10:00;;;;;;;6.42;4.58;;;;;;;;;;1719460;82;20994;-66
2022/07/25 05:12:26;;;;;;;5.90;5.05;;;;;;;;;;1735673;82;20997;-66
2022/07/25 05:14:53;;;;;;;5.67;4.80;;;;;;;;;;1736000;83;21041;-65
2022/07/25 05:17:20;;;;;;;8.28;5.05;;;;;;;;;;1740834;81;21064;-66
2022/07/25 05:19:46;;;;;;;5.85;4.00;;;;;;;;;;1741791;82;21051;-66
2022/07/25 05:22:12;;;;;;;6.78;3.85;;;;;;;;;;1742176;82;21002;-65
2022/07/25 05:24:39;;;;;;;7.78;4.20;;;;;;;;;;1742022;82;21139;-65
2022/07/25 05:27:05;;;;;;;7.80;5.25;;;;;;;;;;1763063;81;21080;-66
2022/07/25 05:29:31;;;;;;;8.05;4.65;;;;;;;;;;1722628;82;21549;-66
2022/07/25 05:31:57;;;;;;;7.53;5.03;;;;;;;;;;1742292;81;21019;-65
2022/07/25 05:34:23;;;;;;;7.30;5.00;;;;;;;;;;1742929;82;21029;-65
2022/07/25 05:36:49;;;;;;;11.15;5.47;;;;;;;;;;1720649;82;21112;-66
2022/07/25 05:39:15;;;;;;;7.60;4.90;;;;;;;;;;1738062;81;21052;-65
2022/07/25 05:41:41;;;;;;;8.88;5.22;;;;;;;;;;1711920;83;21469;-66
2022/07/25 05:44:07;;;;;;;6.75;3.92;;;;;;;;;;1735868;83;21062;-65
2022/07/25 05:46:33;;;;;;;7.97;5.10;;;;;;;;;;1714465;83;21064;-66
2022/07/25 05:48:59;;;;;;;10.38;4.58;;;;;;;;;;1742714;82;20973;-66
2022/07/25 05:51:26;;;;;;;8.13;4.50;;;;;;;;;;1742507;81;21561;-66
2022/07/25 05:53:52;;;;;;;7.60;4.90;;;;;;;;;;1738816;82;21032;-66
2022/07/25 05:56:19;;;;;;;7.70;5.33;;;;;;;;;;1737195;81;21503;-66
2022/07/25 05:58:45;;;;;;;12.80;6.28;;;;;;;;;;1742953;82;20980;-66
2022/07/25 06:01:11;;;;;;;9.45;5.92;;;;;;;;;;1743651;81;20972;-66
2022/07/25 06:03:38;;;;;;;7.85;6.05;;;;;;;;;;1750100;79;21107;-65
2022/07/25 06:06:04;;;;;;;8.23;5.80;;;;;;;;;;1741771;82;21020;-66
2022/07/25 06:08:32;;;;;;;8.80;5.20;;;;;;;;;;1743710;81;21140;-64
2022/07/25 06:10:59;;;;;;;10.18;6.05;;;;;;;;;;1744725;81;21023;-64
2022/07/25 06:13:27;;;;;;;8.50;5.67;;;;;;;;;;1742457;81;21100;-64
2022/07/25 06:15:53;;;;;;;9.23;6.25;;;;;;;;;;1742698;82;20989;-64
2022/07/25 06:18:19;;;;;;;10.03;5.62;;;;;;;;;;1743538;82;21052;-64
2022/07/25 06:20:47;;;;;;;6.78;4.53;;;;;;;;;;1743372;82;21067;-64
2022/07/25 06:23:14;;;;;;;8.58;5.17;;;;;;;;;;1743909;82;21049;-64
2022/07/25 06:25:40;;;;;;;8.53;5.50;;;;;;;;;;1713816;82;21091;-64
2022/07/25 06:28:07;;;;;;;7.97;5.87;;;;;;;;;;1771177;81;21105;-64
2022/07/25 06:30:33;;;;;;;8.33;5.50;;;;;;;;;;1773968;81;21098;-64
2022/07/25 06:33:00;;;;;;;8.63;4.87;;;;;;;;;;1742430;82;20993;-64
2022/07/25 06:35:26;;;;;;;9.95;5.30;;;;;;;;;;1743836;81;21017;-63
2022/07/25 06:37:52;;;;;;;7.83;4.92;;;;;;;;;;1743211;82;21076;-64
2022/07/25 06:40:19;;;;;;;8.50;6.15;;;;;;;;;;1742842;82;21068;-63
2022/07/25 06:42:45;;;;;;;7.35;4.83;;;;;;;;;;1747717;81;21115;-63
2022/07/25 06:45:12;;;;;;;9.45;6.00;;;;;;;;;;1744248;82;21013;-64
2022/07/25 06:47:39;;;;;;;6.75;4.97;;;;;;;;;;1742687;82;21060;-63
2022/07/25 06:50:07;;;;;;;8.90;5.78;;;;;;;;;;1742414;82;21039;-63
2022/07/25 06:52:33;;;;;;;10.28;6.20;;;;;;;;;;1742919;82;21031;-63
2022/07/25 06:55:00;;;;;;;7.35;5.15;;;;;;;;;;1742650;82;21005;-64
2022/07/25 06:57:26;;;;;;;8.63;5.60;;;;;;;;;;1742493;82;21052;-63
2022/07/25 06:59:52;;;;;;;11.40;6.45;;;;;;;;;;1736970;82;21050;-63
2022/07/25 07:02:18;;;;;;;7.90;5.47;;;;;;;;;;1708104;83;21075;-64
2022/07/25 07:04:46;;;;;;;8.33;5.25;;;;;;;;;;1707063;82;21097;-63
2022/07/25 07:07:12;;;;;;;8.65;5.95;;;;;;;;;;1731659;82;21554;-64
2022/07/25 07:09:38;;;;;;;8.80;5.55;;;;;;;;;;1750354;81;21010;-64
2022/07/25 07:12:05;;;;;;;6.62;4.58;;;;;;;;;;1746009;82;21021;-64
2022/07/25 07:14:31;;;;;;;7.35;4.90;;;;;;;;;;1747368;81;21056;-64
2022/07/25 07:16:59;;;;;;;8.28;5.42;;;;;;;;;;1716784;82;21126;-63
2022/07/25 07:19:25;;;;;;;6.35;5.08;;;;;;;;;;1752949;81;21077;-63
2022/07/25 07:21:51;;;;;;;10.88;5.80;;;;;;;;;;1746223;82;21029;-63
2022/07/25 07:24:18;;;;;;;5.87;4.12;;;;;;;;;;1744712;81;21061;-64
2022/07/25 07:26:44;;;;;;;7.87;5.03;;;;;;;;;;1746978;81;21066;-63
2022/07/25 07:29:10;;;;;;;6.55;5.15;;;;;;;;;;1744098;81;21099;-64
2022/07/25 07:31:37;;;;;;;7.22;5.53;;;;;;;;;;1730565;82;21052;-62
2022/07/25 07:34:03;;;;;;;7.28;4.25;;;;;;;;;;1752378;81;21596;-63
2022/07/25 07:36:30;;;;;;;7.10;4.50;;;;;;;;;;1748555;81;21017;-63
2022/07/25 07:38:56;;;;;;;7.05;4.25;;;;;;;;;;1776941;81;21093;-62
2022/07/25 07:41:22;;;;;;;8.08;4.97;;;;;;;;;;1731197;81;21101;-63
2022/07/25 07:43:48;;;;;;;9.03;4.30;;;;;;;;;;1773785;81;21025;-62
2022/07/25 07:46:15;;;;;;;6.95;4.55;;;;;;;;;;1771653;81;21064;-63
2022/07/25 07:48:41;;;;;;;8.15;5.15;;;;;;;;;;1754015;81;21543;-64
2022/07/25 07:51:07;;;;;;;7.03;5.05;;;;;;;;;;1725905;82;21595;-64
2022/07/25 07:56:21;;;;;;;7.08;5.28;;;;;;;;;;1660812;86;21067;-63
2022/07/25 07:58:47;;;;;;;8.33;4.65;;;;;;;;;;1662944;86;21578;-63
2022/07/25 08:01:13;;;;;;;23.80;16.95;;;;;;;;;;1690710;81;21086;-66
2022/07/25 08:03:40;;;;;;;9.55;7.17;;;;;;;;;;1744374;82;21094;-66
2022/07/25 08:06:06;;;;;;;17.12;12.95;;;;;;;;;;1744629;82;21077;-66
2022/07/25 08:08:34;;;;;;;9.68;4.75;;;;;;;;;;1742522;82;21118;-64
2022/07/25 08:11:00;;;;;;;6.72;4.53;;;;;;;;;;1774260;81;21028;-64
2022/07/25 08:13:27;;;;;;;5.50;4.40;;;;;;;;;;1766202;81;21068;-65
2022/07/25 08:15:56;;;;;;;6.37;3.92;;;;;;;;;;1756271;81;21018;-65
2022/07/25 08:18:22;;;;;;;7.20;4.37;;;;;;;;;;1728404;83;21072;-65
2022/07/25 08:20:50;;;;;;;5.78;3.70;;;;;;;;;;1728716;81;20974;-63
2022/07/25 08:23:18;;;;;;;6.72;4.65;;;;;;;;;;1720336;82;21100;-63
2022/07/25 08:25:45;;;;;;;6.12;4.20;;;;;;;;;;1744814;82;21036;-63
2022/07/25 08:28:12;;;;;;;7.03;4.40;;;;;;;;;;1744444;82;21057;-64
2022/07/25 08:30:38;;;;;;;6.10;4.00;;;;;;;;;;1742330;81;21144;-65
2022/07/25 08:33:06;;;;;;;8.38;4.47;;;;;;;;;;1739784;81;21557;-64
2022/07/25 08:35:33;;;;;;;5.10;3.92;;;;;;;;;;1747625;81;21563;-65
2022/07/25 08:37:59;;;;;;;8.15;4.53;;;;;;;;;;1744776;81;21043;-63
2022/07/25 08:40:26;;;;;;;8.63;4.40;;;;;;;;;;1723864;82;21053;-63
2022/07/25 08:42:53;;;;;;;29.63;20.75;;;;;;;;;;1743664;81;21063;-64
2022/07/25 08:45:20;;;;;;;19.80;16.25;;;;;;;;;;1744457;81;21059;-63
2022/07/25 08:47:47;;;;;;;7.53;4.30;;;;;;;;;;1776141;81;21093;-63
2022/07/25 08:50:14;;;;;;;6.17;3.90;;;;;;;;;;1772204;81;21557;-63
2022/07/25 08:52:42;;;;;;;7.75;4.33;;;;;;;;;;1730427;82;21025;-63
2022/07/25 08:55:09;;;;;;;5.62;4.40;;;;;;;;;;1776459;81;21062;-64
2022/07/25 08:57:37;;;;;;;6.00;4.12;;;;;;;;;;1774350;81;21066;-62
2022/07/25 09:00:04;;;;;;;4.45;4.03;;;;;;;;;;1777337;81;21070;-63
2022/07/25 09:02:30;;;;;;;7.20;4.55;;;;;;;;;;1754292;81;21089;-64
2022/07/25 09:04:56;;;;;;;5.55;4.50;;;;;;;;;;1758255;81;22098;-63
2022/07/25 09:07:31;;;;;;;8.73;4.10;;;;;;;;;;1745127;81;21102;-63
2022/07/25 09:09:57;;;;;;;7.37;5.12;;;;;;;;;;1754022;81;21502;-64
2022/07/25 09:12:25;;;;;;;10.03;5.30;;;;;;;;;;1735637;81;21034;-65
2022/07/25 09:14:51;;;;;;;8.75;6.35;;;;;;;;;;1700350;84;21081;-65
2022/07/25 09:17:17;;;;;;;7.55;4.67;;;;;;;;;;1739563;81;21108;-65
2022/07/25 09:19:52;;;;;;;4.75;4.10;;;;;;;;;;1745353;81;21081;-65
2022/07/25 09:22:18;;;;;;;5.87;4.50;;;;;;;;;;1760064;81;21787;-64
2022/07/25 09:24:44;;;;;;;6.58;5.08;;;;;;;;;;1744605;81;21112;-65
2022/07/25 09:27:10;;;;;;;6.10;4.20;;;;;;;;;;1752099;81;21025;-66
2022/07/25 09:29:38;;;;;;;6.58;4.25;;;;;;;;;;1745612;81;21066;-66
2022/07/25 09:32:20;;;;;;;10.30;5.30;;;;;;;;;;1741264;81;20977;-66
2022/07/25 09:34:47;;;;;;;6.33;4.53;;;;;;;;;;1706469;84;21049;-64
2022/07/25 09:37:14;;;;;;;7.03;5.15;;;;;;;;;;1748177;81;21688;-65
2022/07/25 09:39:45;;;;;;;5.08;3.60;;;;;;;;;;1699422;82;21104;-65
2022/07/25 09:42:15;;;;;;;5.92;3.67;;;;;;;;;;1702575;82;21479;-64
2022/07/25 09:44:41;;;;;;;6.83;4.08;;;;;;;;;;1748456;81;21012;-65
2022/07/25 09:47:13;;;;;;;7.40;3.90;;;;;;;;;;1732974;81;20999;-64
2022/07/25 09:49:43;;;;;;;5.17;4.17;;;;;;;;;;1744156;81;21074;-65
2022/07/25 09:52:09;;;;;;;7.05;3.70;;;;;;;;;;1744851;81;21004;-65
2022/07/25 09:54:37;;;;;;;7.30;3.60;;;;;;;;;;1745481;81;21064;-65
2022/07/25 09:57:03;;;;;;;6.67;4.70;;;;;;;;;;1750095;81;21049;-65
2022/07/25 09:59:30;;;;;;;6.10;4.35;;;;;;;;;;1745560;81;21064;-65
2022/07/25 10:02:04;;;;;;;6.12;4.50;;;;;;;;;;1743930;81;21112;-65
2022/07/25 10:04:32;;;;;;;8.33;4.60;;;;;;;;;;1744442;81;21508;-65
2022/07/25 10:07:05;;;;;;;6.47;4.28;;;;;;;;;;1725591;81;21017;-65
2022/07/25 10:09:31;;;;;;;5.75;4.20;;;;;;;;;;1721281;81;21041;-65
2022/07/25 10:12:07;;;;;;;7.65;4.40;;;;;;;;;;1722925;81;21120;-66
2022/07/25 10:14:33;;;;;;;5.95;4.37;;;;;;;;;;1718180;81;21535;-66
2022/07/25 10:17:01;;;;;;;9.05;5.55;;;;;;;;;;1715773;83;21107;-65
2022/07/25 10:19:34;;;;;;;13.25;10.00;;;;;;;;;;1715783;82;21099;-67
2022/07/25 10:22:00;;;;;;;23.45;19.10;;;;;;;;;;1724954;83;21021;-68
2022/07/25 10:24:34;;;;;;;8.63;6.28;;;;;;;;;;1719951;81;21096;-66
2022/07/25 10:27:01;;;;;;;7.35;4.83;;;;;;;;;;1721305;81;21024;-65
2022/07/25 10:29:30;;;;;;;7.60;4.60;;;;;;;;;;1733584;81;21012;-66
2022/07/25 10:31:58;;;;;;;8.40;5.12;;;;;;;;;;1735763;81;21049;-65
2022/07/25 10:34:30;;;;;;;6.83;4.50;;;;;;;;;;1732032;81;21008;-65
2022/07/25 10:36:56;;;;;;;8.88;4.58;;;;;;;;;;1739203;81;21020;-66
2022/07/25 10:39:22;;;;;;;8.45;5.67;;;;;;;;;;1708993;81;21528;-65
2022/07/25 10:41:50;;;;;;;7.10;5.10;;;;;;;;;;1699229;83;21067;-66
2022/07/25 10:44:17;;;;;;;8.48;5.15;;;;;;;;;;1727823;81;21098;-67
2022/07/25 10:46:43;;;;;;;9.18;5.55;;;;;;;;;;1739867;82;21507;-67
2022/07/25 10:49:20;;;;;;;8.90;5.03;;;;;;;;;;1748308;82;21059;-67
2022/07/25 10:51:56;;;;;;;7.10;4.95;;;;;;;;;;1727268;81;21033;-67
2022/07/25 10:54:23;;;;;;;24.32;17.37;;;;;;;;;;1738390;82;21032;-64
2022/07/25 10:56:53;;;;;;;33.08;27.15;;;;;;;;;;1729729;81;21032;-62
2022/07/25 10:59:27;;;;;;;6.42;5.12;;;;;;;;;;1705807;82;21104;-63
2022/07/25 11:01:53;;;;;;;7.75;5.70;;;;;;;;;;1730009;82;21040;-63
2022/07/25 11:04:19;;;;;;;7.53;5.58;;;;;;;;;;1723697;82;21125;-62
2022/07/25 11:06:46;;;;;;;8.23;5.30;;;;;;;;;;1709461;81;21028;-64
2022/07/25 11:09:20;;;;;;;13.58;5.50;;;;;;;;;;1745237;81;21009;-63
2022/07/25 11:11:48;;;;;;;7.65;5.05;;;;;;;;;;1741852;81;21086;-64
2022/07/25 11:14:15;;;;;;;6.95;5.28;;;;;;;;;;1704169;83;21127;-64
2022/07/25 11:16:42;;;;;;;10.48;5.70;;;;;;;;;;1749929;81;21047;-64
2022/07/25 11:19:22;;;;;;;10.15;5.40;;;;;;;;;;1736333;81;21055;-64
2022/07/25 11:21:50;;;;;;;8.80;5.58;;;;;;;;;;1733994;81;21058;-64
2022/07/25 11:24:17;;;;;;;7.58;5.30;;;;;;;;;;1774321;81;21191;-63
2022/07/25 11:26:48;;;;;;;7.30;4.75;;;;;;;;;;1746870;81;21022;-64
2022/07/25 11:29:18;;;;;;;10.70;5.55;;;;;;;;;;1742842;81;21495;-62
2022/07/25 11:31:46;;;;;;;9.78;5.00;;;;;;;;;;1717081;82;21033;-62
2022/07/25 11:34:12;;;;;;;6.78;5.08;;;;;;;;;;1715084;82;21613;-63
2022/07/25 11:36:38;;;;;;;7.20;4.70;;;;;;;;;;1742219;81;21045;-62
2022/07/25 11:39:04;;;;;;;7.00;4.97;;;;;;;;;;1714557;83;21028;-63
2022/07/25 11:41:30;;;;;;;9.45;5.30;;;;;;;;;;1711692;84;21013;-63
2022/07/25 11:43:57;;;;;;;7.75;4.67;;;;;;;;;;1721709;81;21025;-63
2022/07/25 11:46:23;;;;;;;8.45;5.33;;;;;;;;;;1718775;82;21080;-64
2022/07/25 11:48:52;;;;;;;9.35;4.62;;;;;;;;;;1719523;82;21082;-65
2022/07/25 11:51:18;;;;;;;8.90;5.00;;;;;;;;;;1697018;84;21025;-64
2022/07/25 11:53:46;;;;;;;7.87;5.20;;;;;;;;;;1744916;81;20998;-64
2022/07/25 11:56:13;;;;;;;8.35;4.85;;;;;;;;;;1740478;82;21130;-65
2022/07/25 11:58:39;;;;;;;8.30;4.67;;;;;;;;;;1740483;81;21045;-65
2022/07/25 12:01:12;;;;;;;6.85;4.58;;;;;;;;;;1756184;79;21111;-64
2022/07/25 12:03:38;;;;;;;6.60;4.12;;;;;;;;;;1746136;81;21020;-62
2022/07/25 12:06:08;;;;;;;6.78;5.10;;;;;;;;;;1745839;81;21054;-64
2022/07/25 12:08:36;;;;;;;8.83;4.47;;;;;;;;;;1732205;81;22077;-64
2022/07/25 12:11:06;;;;;;;8.18;5.10;;;;;;;;;;1733537;81;21041;-64
2022/07/25 12:13:35;;;;;;;7.40;5.08;;;;;;;;;;1743058;81;21025;-64
2022/07/25 12:16:01;;;;;;;8.23;4.45;;;;;;;;;;1751430;81;21048;-65
2022/07/25 12:18:29;;;;;;;8.50;4.85;;;;;;;;;;1723252;81;21574;-65
2022/07/25 12:20:55;;;;;;;8.08;5.33;;;;;;;;;;1745424;81;21078;-64
2022/07/25 12:23:23;;;;;;;6.45;5.05;;;;;;;;;;1751269;81;21724;-65
2022/07/25 12:25:50;;;;;;;9.80;4.25;;;;;;;;;;1749850;81;21027;-65
2022/07/25 12:28:16;;;;;;;5.65;4.12;;;;;;;;;;1742380;81;21080;-65
2022/07/25 12:30:43;;;;;;;6.05;4.58;;;;;;;;;;1733109;81;21075;-66
2022/07/25 12:33:10;;;;;;;7.53;4.25;;;;;;;;;;1743695;81;21068;-65
2022/07/25 12:35:36;;;;;;;6.35;3.50;;;;;;;;;;1746428;81;21011;-66
2022/07/25 12:38:03;;;;;;;7.53;4.08;;;;;;;;;;1749213;81;21585;-65
2022/07/25 12:40:29;;;;;;;6.55;4.10;;;;;;;;;;1746135;82;21340;-66
2022/07/25 12:42:56;;;;;;;5.58;3.67;;;;;;;;;;1744448;81;20973;-66
2022/07/25 12:45:22;;;;;;;5.28;3.98;;;;;;;;;;1751215;81;20997;-65
2022/07/25 12:47:49;;;;;;;7.40;3.70;;;;;;;;;;1752088;81;21081;-65
2022/07/25 12:50:15;;;;;;;5.22;4.00;;;;;;;;;;1744999;81;21553;-66
2022/07/25 12:55:04;;;;;;;9.88;4.22;;;;;;;;;;1801910;79;23827;-65
2022/07/25 12:57:30;;;;;;;5.62;3.50;;;;;;;;;;1762588;80;21477;-65
2022/07/25 12:59:56;;;;;;;6.15;3.90;;;;;;;;;;1753144;80;21064;-65
2022/07/25 13:02:23;;;;;;;5.20;3.65;;;;;;;;;;1744693;82;21040;-64
2022/07/25 13:04:49;;;;;;;6.15;3.67;;;;;;;;;;1751314;82;21048;-64
2022/07/25 13:07:16;;;;;;;5.08;3.60;;;;;;;;;;1745849;81;21580;-65
2022/07/25 13:09:42;;;;;;;6.42;3.65;;;;;;;;;;1752241;82;20993;-63
2022/07/25 13:12:08;;;;;;;4.87;3.80;;;;;;;;;;1753102;81;20993;-63
2022/07/25 13:14:36;;;;;;;5.28;3.98;;;;;;;;;;1748887;81;21033;-65
2022/07/25 13:17:02;;;;;;;6.25;3.55;;;;;;;;;;1741248;81;21037;-64
2022/07/25 13:19:28;;;;;;;4.30;3.17;;;;;;;;;;1745164;81;21032;-66
2022/07/25 13:21:55;;;;;;;5.05;3.58;;;;;;;;;;1746237;81;21591;-66
2022/07/25 13:24:22;;;;;;;5.85;3.25;;;;;;;;;;1748827;81;21010;-66
2022/07/25 13:26:49;;;;;;;4.97;3.45;;;;;;;;;;1749494;81;21024;-65
2022/07/25 13:29:15;;;;;;;4.62;3.42;;;;;;;;;;1746696;81;21012;-66
2022/07/25 13:31:42;;;;;;;4.33;3.20;;;;;;;;;;1738744;82;21091;-67
2022/07/25 13:34:08;;;;;;;4.53;3.10;;;;;;;;;;1727385;82;21087;-66
2022/07/25 13:36:35;;;;;;;7.35;4.03;;;;;;;;;;1731871;82;21055;-65
2022/07/25 13:39:01;;;;;;;4.70;3.50;;;;;;;;;;1735376;82;21052;-67
2022/07/25 13:41:27;;;;;;;5.58;3.45;;;;;;;;;;1741822;81;21051;-65
2022/07/25 13:43:54;;;;;;;8.55;4.10;;;;;;;;;;1752398;82;21556;-66
2022/07/25 13:46:20;;;;;;;5.10;4.03;;;;;;;;;;1747651;81;21052;-66
2022/07/25 13:48:46;;;;;;;4.58;3.33;;;;;;;;;;1735984;81;21115;-65
2022/07/25 13:51:12;;;;;;;24.77;20.57;;;;;;;;;;1748764;81;21108;-65
2022/07/25 13:53:38;;;;;;;47.60;38.50;;;;;;;;;;1743354;81;21025;-63
2022/07/25 13:56:05;;;;;;;13.55;11.73;;;;;;;;;;1748622;81;21036;-63
2022/07/25 13:58:31;;;;;;;5.97;4.15;;;;;;;;;;1742557;81;21099;-65
2022/07/25 14:00:58;;;;;;;5.97;3.72;;;;;;;;;;1746320;81;21068;-66
2022/07/25 14:03:24;;;;;;;5.97;3.80;;;;;;;;;;1742565;81;20981;-65
2022/07/25 14:05:50;;;;;;;6.65;4.00;;;;;;;;;;1724738;82;21036;-65
2022/07/25 14:08:17;;;;;;;5.65;3.77;;;;;;;;;;1747347;82;21011;-66
2022/07/25 14:10:45;;;;;;;5.25;3.67;;;;;;;;;;1715239;82;21481;-65
2022/07/25 14:13:11;;;;;;;7.08;3.60;;;;;;;;;;1747727;81;21033;-66
2022/07/25 14:15:39;;;;;;;4.90;3.42;;;;;;;;;;1746539;81;21037;-66
2022/07/25 14:18:05;;;;;;;4.67;3.22;;;;;;;;;;1747134;81;20985;-65
2022/07/25 14:20:32;;;;;;;5.95;3.35;;;;;;;;;;1744645;81;20957;-66
2022/07/25 14:22:58;;;;;;;4.70;3.15;;;;;;;;;;1748935;81;20973;-67
2022/07/25 14:25:24;;;;;;;4.22;3.52;;;;;;;;;;1747588;82;20980;-66
2022/07/25 14:27:50;;;;;;;35.52;28.90;;;;;;;;;;1747683;81;21016;-65
2022/07/25 14:30:16;;;;;;;12.85;7.70;;;;;;;;;;1733460;81;21497;-64
2022/07/25 14:32:42;;;;;;;5.03;4.00;;;;;;;;;;1749141;82;20968;-65
2022/07/25 14:35:09;;;;;;;3.50;2.92;;;;;;;;;;1746250;81;20977;-64
2022/07/25 14:37:35;;;;;;;4.50;3.17;;;;;;;;;;1743230;81;21152;-66
2022/07/25 14:40:01;;;;;;;3.25;2.72;;;;;;;;;;1748891;82;20977;-65
2022/07/25 14:42:28;;;;;;;4.87;2.90;;;;;;;;;;1748670;82;20965;-65
2022/07/25 14:44:54;;;;;;;3.62;2.62;;;;;;;;;;1747381;82;21064;-65
2022/07/25 14:47:20;;;;;;;3.47;2.42;;;;;;;;;;1745473;82;21049;-63
2022/07/25 14:49:46;;;;;;;5.03;4.05;;;;;;;;;;1746744;81;21508;-64
2022/07/25 14:52:13;;;;;;;15.03;5.50;;;;;;;;;;1745387;82;21055;-64